sensor_id;sensor_type;location;lat;lon;timestamp;P1;durP1;ratioP1;P2;durP2;ratioP2
21505;SDS011;10914;48.886;9.394;2024-01-30T00:00:12;46.67;;;43.40;;
21505;SDS011;10914;48.886;9.394;2024-01-30T00:02:38;47.80;;;44.50;;
21505;SDS011;10914;48.886;9.394;2024-01-30T00:05:03;48.58;;;45.08;;
21505;SDS011;10914;48.886;9.394;2024-01-30T00:07:28;49.15;;;45.55;;
21505;SDS011;10914;48.886;9.394;2024-01-30T00:09:53;50.15;;;46.35;;
21505;SDS011;10914;48.886;9.394;2024-01-30T00:12:19;53.67;;;49.85;;
21505;SDS011;10914;48.886;9.394;2024-01-30T00:14:45;52.83;;;48.95;;
21505;SDS011;10914;48.886;9.394;2024-01-30T00:17:10;52.97;;;49.13;;
21505;SDS011;10914;48.886;9.394;2024-01-30T00:19:35;50.83;;;46.97;;
21505;SDS011;10914;48.886;9.394;2024-01-30T00:22:00;48.43;;;44.83;;
21505;SDS011;10914;48.886;9.394;2024-01-30T00:24:25;45.97;;;42.45;;
21505;SDS011;10914;48.886;9.394;2024-01-30T00:26:51;46.65;;;43.22;;
21505;SDS011;10914;48.886;9.394;2024-01-30T00:29:17;48.60;;;44.92;;
21505;SDS011;10914;48.886;9.394;2024-01-30T00:31:44;51.40;;;47.58;;
21505;SDS011;10914;48.886;9.394;2024-01-30T00:34:10;45.45;;;41.95;;
21505;SDS011;10914;48.886;9.394;2024-01-30T00:36:35;46.10;;;42.50;;
21505;SDS011;10914;48.886;9.394;2024-01-30T00:39:00;45.33;;;41.67;;
21505;SDS011;10914;48.886;9.394;2024-01-30T00:41:25;43.90;;;40.38;;
21505;SDS011;10914;48.886;9.394;2024-01-30T00:43:51;43.10;;;39.95;;
21505;SDS011;10914;48.886;9.394;2024-01-30T00:46:16;44.13;;;40.90;;
21505;SDS011;10914;48.886;9.394;2024-01-30T00:48:42;46.35;;;43.08;;
21505;SDS011;10914;48.886;9.394;2024-01-30T00:51:07;48.90;;;45.50;;
21505;SDS011;10914;48.886;9.394;2024-01-30T00:53:32;45.22;;;42.00;;
21505;SDS011;10914;48.886;9.394;2024-01-30T00:55:57;45.30;;;41.80;;
21505;SDS011;10914;48.886;9.394;2024-01-30T00:58:22;44.70;;;41.47;;
21505;SDS011;10914;48.886;9.394;2024-01-30T01:00:48;43.70;;;40.22;;
21505;SDS011;10914;48.886;9.394;2024-01-30T01:03:13;42.85;;;39.58;;
21505;SDS011;10914;48.886;9.394;2024-01-30T01:05:39;39.75;;;36.58;;
21505;SDS011;10914;48.886;9.394;2024-01-30T01:08:04;43.67;;;39.97;;
21505;SDS011;10914;48.886;9.394;2024-01-30T01:10:29;47.05;;;43.55;;
21505;SDS011;10914;48.886;9.394;2024-01-30T01:12:54;42.67;;;39.67;;
21505;SDS011;10914;48.886;9.394;2024-01-30T01:15:19;41.13;;;38.03;;
21505;SDS011;10914;48.886;9.394;2024-01-30T01:17:44;41.85;;;38.65;;
21505;SDS011;10914;48.886;9.394;2024-01-30T01:20:10;44.90;;;41.67;;
21505;SDS011;10914;48.886;9.394;2024-01-30T01:22:35;43.45;;;40.33;;
21505;SDS011;10914;48.886;9.394;2024-01-30T01:25:00;46.42;;;43.08;;
21505;SDS011;10914;48.886;9.394;2024-01-30T01:27:26;49.53;;;46.20;;
21505;SDS011;10914;48.886;9.394;2024-01-30T01:29:51;49.25;;;45.78;;
21505;SDS011;10914;48.886;9.394;2024-01-30T01:32:16;48.22;;;45.03;;
21505;SDS011;10914;48.886;9.394;2024-01-30T01:34:42;45.13;;;41.65;;
21505;SDS011;10914;48.886;9.394;2024-01-30T01:37:07;44.38;;;41.38;;
21505;SDS011;10914;48.886;9.394;2024-01-30T01:39:32;44.55;;;41.45;;
21505;SDS011;10914;48.886;9.394;2024-01-30T01:41:57;44.88;;;41.95;;
21505;SDS011;10914;48.886;9.394;2024-01-30T01:44:22;46.35;;;43.45;;
21505;SDS011;10914;48.886;9.394;2024-01-30T01:46:48;46.60;;;43.53;;
21505;SDS011;10914;48.886;9.394;2024-01-30T01:49:13;47.10;;;43.75;;
21505;SDS011;10914;48.886;9.394;2024-01-30T01:51:38;41.80;;;39.00;;
21505;SDS011;10914;48.886;9.394;2024-01-30T01:54:06;43.08;;;40.03;;
21505;SDS011;10914;48.886;9.394;2024-01-30T01:56:31;45.28;;;42.13;;
21505;SDS011;10914;48.886;9.394;2024-01-30T01:58:59;43.03;;;40.08;;
21505;SDS011;10914;48.886;9.394;2024-01-30T02:01:25;41.97;;;38.97;;
21505;SDS011;10914;48.886;9.394;2024-01-30T02:03:50;42.25;;;39.05;;
21505;SDS011;10914;48.886;9.394;2024-01-30T02:06:15;40.22;;;37.33;;
21505;SDS011;10914;48.886;9.394;2024-01-30T02:08:41;39.47;;;36.53;;
21505;SDS011;10914;48.886;9.394;2024-01-30T02:11:06;42.03;;;38.90;;
21505;SDS011;10914;48.886;9.394;2024-01-30T02:13:31;41.50;;;38.50;;
21505;SDS011;10914;48.886;9.394;2024-01-30T02:15:57;40.83;;;37.72;;
21505;SDS011;10914;48.886;9.394;2024-01-30T02:18:22;42.08;;;38.90;;
21505;SDS011;10914;48.886;9.394;2024-01-30T02:20:47;42.13;;;39.08;;
21505;SDS011;10914;48.886;9.394;2024-01-30T02:23:12;42.80;;;39.70;;
21505;SDS011;10914;48.886;9.394;2024-01-30T02:25:58;42.33;;;39.42;;
21505;SDS011;10914;48.886;9.394;2024-01-30T02:28:23;44.38;;;40.92;;
21505;SDS011;10914;48.886;9.394;2024-01-30T02:30:48;43.22;;;40.15;;
21505;SDS011;10914;48.886;9.394;2024-01-30T02:33:13;42.53;;;39.40;;
21505;SDS011;10914;48.886;9.394;2024-01-30T02:35:38;43.17;;;40.05;;
21505;SDS011;10914;48.886;9.394;2024-01-30T02:38:04;40.00;;;37.17;;
21505;SDS011;10914;48.886;9.394;2024-01-30T02:40:29;41.95;;;38.83;;
21505;SDS011;10914;48.886;9.394;2024-01-30T02:42:54;40.70;;;37.83;;
21505;SDS011;10914;48.886;9.394;2024-01-30T02:45:20;40.47;;;37.45;;
21505;SDS011;10914;48.886;9.394;2024-01-30T02:47:45;41.22;;;38.13;;
21505;SDS011;10914;48.886;9.394;2024-01-30T02:50:10;39.28;;;36.33;;
21505;SDS011;10914;48.886;9.394;2024-01-30T02:52:35;41.03;;;37.73;;
21505;SDS011;10914;48.886;9.394;2024-01-30T02:55:01;40.22;;;37.38;;
21505;SDS011;10914;48.886;9.394;2024-01-30T02:57:26;44.08;;;40.60;;
21505;SDS011;10914;48.886;9.394;2024-01-30T02:59:52;41.20;;;37.83;;
21505;SDS011;10914;48.886;9.394;2024-01-30T03:02:17;39.35;;;36.50;;
21505;SDS011;10914;48.886;9.394;2024-01-30T03:04:42;38.80;;;35.95;;
21505;SDS011;10914;48.886;9.394;2024-01-30T03:07:07;40.92;;;37.90;;
21505;SDS011;10914;48.886;9.394;2024-01-30T03:09:32;40.20;;;37.13;;
21505;SDS011;10914;48.886;9.394;2024-01-30T03:11:58;40.45;;;37.45;;
21505;SDS011;10914;48.886;9.394;2024-01-30T03:14:23;40.92;;;38.00;;
21505;SDS011;10914;48.886;9.394;2024-01-30T03:16:48;41.55;;;38.55;;
21505;SDS011;10914;48.886;9.394;2024-01-30T03:19:13;41.70;;;38.63;;
21505;SDS011;10914;48.886;9.394;2024-01-30T03:21:38;41.58;;;38.58;;
21505;SDS011;10914;48.886;9.394;2024-01-30T03:24:04;42.17;;;39.03;;
21505;SDS011;10914;48.886;9.394;2024-01-30T03:26:29;40.72;;;37.72;;
21505;SDS011;10914;48.886;9.394;2024-01-30T03:28:54;41.40;;;38.15;;
21505;SDS011;10914;48.886;9.394;2024-01-30T03:31:19;40.78;;;37.58;;
21505;SDS011;10914;48.886;9.394;2024-01-30T03:33:45;38.65;;;35.55;;
21505;SDS011;10914;48.886;9.394;2024-01-30T03:36:10;40.00;;;37.08;;
21505;SDS011;10914;48.886;9.394;2024-01-30T03:38:35;40.45;;;37.20;;
21505;SDS011;10914;48.886;9.394;2024-01-30T03:41:00;40.47;;;37.38;;
21505;SDS011;10914;48.886;9.394;2024-01-30T03:43:26;40.10;;;37.10;;
21505;SDS011;10914;48.886;9.394;2024-01-30T03:45:51;40.20;;;37.15;;
21505;SDS011;10914;48.886;9.394;2024-01-30T03:48:16;40.28;;;37.40;;
21505;SDS011;10914;48.886;9.394;2024-01-30T03:50:42;39.70;;;36.72;;
21505;SDS011;10914;48.886;9.394;2024-01-30T03:53:07;39.83;;;36.95;;
21505;SDS011;10914;48.886;9.394;2024-01-30T03:55:32;39.03;;;36.08;;
21505;SDS011;10914;48.886;9.394;2024-01-30T03:57:57;40.88;;;37.65;;
21505;SDS011;10914;48.886;9.394;2024-01-30T04:00:22;39.38;;;36.30;;
21505;SDS011;10914;48.886;9.394;2024-01-30T04:02:47;40.85;;;37.80;;
21505;SDS011;10914;48.886;9.394;2024-01-30T04:05:13;39.90;;;36.83;;
21505;SDS011;10914;48.886;9.394;2024-01-30T04:07:38;39.90;;;36.75;;
21505;SDS011;10914;48.886;9.394;2024-01-30T04:10:03;39.03;;;36.15;;
21505;SDS011;10914;48.886;9.394;2024-01-30T04:12:30;40.33;;;37.10;;
21505;SDS011;10914;48.886;9.394;2024-01-30T04:14:55;38.95;;;35.75;;
21505;SDS011;10914;48.886;9.394;2024-01-30T04:17:21;40.33;;;37.08;;
21505;SDS011;10914;48.886;9.394;2024-01-30T04:19:46;40.58;;;37.25;;
21505;SDS011;10914;48.886;9.394;2024-01-30T04:22:11;38.58;;;35.35;;
21505;SDS011;10914;48.886;9.394;2024-01-30T04:24:36;38.90;;;35.80;;
21505;SDS011;10914;48.886;9.394;2024-01-30T04:27:01;38.97;;;35.88;;
21505;SDS011;10914;48.886;9.394;2024-01-30T04:29:27;38.45;;;35.38;;
21505;SDS011;10914;48.886;9.394;2024-01-30T04:31:52;38.55;;;35.63;;
21505;SDS011;10914;48.886;9.394;2024-01-30T04:34:17;39.47;;;36.13;;
21505;SDS011;10914;48.886;9.394;2024-01-30T04:36:44;40.63;;;37.42;;
21505;SDS011;10914;48.886;9.394;2024-01-30T04:39:09;40.22;;;36.92;;
21505;SDS011;10914;48.886;9.394;2024-01-30T04:41:34;39.78;;;36.63;;
21505;SDS011;10914;48.886;9.394;2024-01-30T04:43:59;39.42;;;36.33;;
21505;SDS011;10914;48.886;9.394;2024-01-30T04:46:24;39.38;;;36.35;;
21505;SDS011;10914;48.886;9.394;2024-01-30T04:48:49;40.05;;;36.75;;
21505;SDS011;10914;48.886;9.394;2024-01-30T04:51:14;40.22;;;36.90;;
21505;SDS011;10914;48.886;9.394;2024-01-30T04:53:40;40.55;;;37.55;;
21505;SDS011;10914;48.886;9.394;2024-01-30T04:56:05;41.05;;;37.72;;
21505;SDS011;10914;48.886;9.394;2024-01-30T04:58:30;41.13;;;37.80;;
21505;SDS011;10914;48.886;9.394;2024-01-30T05:00:55;41.05;;;37.92;;
21505;SDS011;10914;48.886;9.394;2024-01-30T05:03:20;42.33;;;38.97;;
21505;SDS011;10914;48.886;9.394;2024-01-30T05:05:47;38.80;;;35.70;;
21505;SDS011;10914;48.886;9.394;2024-01-30T05:08:12;41.45;;;37.85;;
21505;SDS011;10914;48.886;9.394;2024-01-30T05:10:38;39.22;;;36.30;;
21505;SDS011;10914;48.886;9.394;2024-01-30T05:13:03;41.63;;;38.08;;
21505;SDS011;10914;48.886;9.394;2024-01-30T05:15:28;43.10;;;39.17;;
21505;SDS011;10914;48.886;9.394;2024-01-30T05:17:53;42.95;;;39.35;;
21505;SDS011;10914;48.886;9.394;2024-01-30T05:20:19;48.63;;;44.50;;
21505;SDS011;10914;48.886;9.394;2024-01-30T05:22:45;46.13;;;42.25;;
21505;SDS011;10914;48.886;9.394;2024-01-30T05:25:10;46.90;;;42.80;;
21505;SDS011;10914;48.886;9.394;2024-01-30T05:27:35;48.00;;;44.00;;
21505;SDS011;10914;48.886;9.394;2024-01-30T05:30:01;50.45;;;45.78;;
21505;SDS011;10914;48.886;9.394;2024-01-30T05:32:26;44.47;;;40.78;;
21505;SDS011;10914;48.886;9.394;2024-01-30T05:34:51;45.22;;;41.70;;
21505;SDS011;10914;48.886;9.394;2024-01-30T05:37:16;50.50;;;46.30;;
21505;SDS011;10914;48.886;9.394;2024-01-30T05:39:42;49.65;;;45.53;;
21505;SDS011;10914;48.886;9.394;2024-01-30T05:42:08;44.15;;;40.65;;
21505;SDS011;10914;48.886;9.394;2024-01-30T05:44:33;45.40;;;41.60;;
21505;SDS011;10914;48.886;9.394;2024-01-30T05:46:58;44.53;;;40.83;;
21505;SDS011;10914;48.886;9.394;2024-01-30T05:49:23;43.88;;;40.35;;
21505;SDS011;10914;48.886;9.394;2024-01-30T05:51:48;43.38;;;39.78;;
21505;SDS011;10914;48.886;9.394;2024-01-30T05:54:13;45.85;;;41.80;;
21505;SDS011;10914;48.886;9.394;2024-01-30T05:56:39;42.28;;;38.70;;
21505;SDS011;10914;48.886;9.394;2024-01-30T05:59:04;43.35;;;39.65;;
21505;SDS011;10914;48.886;9.394;2024-01-30T06:01:29;43.35;;;39.85;;
21505;SDS011;10914;48.886;9.394;2024-01-30T06:03:54;43.35;;;39.90;;
21505;SDS011;10914;48.886;9.394;2024-01-30T06:06:20;46.15;;;42.72;;
21505;SDS011;10914;48.886;9.394;2024-01-30T06:08:45;48.65;;;44.97;;
21505;SDS011;10914;48.886;9.394;2024-01-30T06:11:10;51.47;;;46.20;;
21505;SDS011;10914;48.886;9.394;2024-01-30T06:13:36;62.97;;;54.35;;
21505;SDS011;10914;48.886;9.394;2024-01-30T06:16:01;67.80;;;52.20;;
21505;SDS011;10914;48.886;9.394;2024-01-30T06:18:27;45.85;;;41.92;;
21505;SDS011;10914;48.886;9.394;2024-01-30T06:20:54;42.55;;;39.10;;
21505;SDS011;10914;48.886;9.394;2024-01-30T06:23:19;42.38;;;39.05;;
21505;SDS011;10914;48.886;9.394;2024-01-30T06:25:44;42.78;;;38.90;;
21505;SDS011;10914;48.886;9.394;2024-01-30T06:28:09;46.10;;;42.50;;
21505;SDS011;10914;48.886;9.394;2024-01-30T06:30:35;51.38;;;47.30;;
21505;SDS011;10914;48.886;9.394;2024-01-30T06:33:00;46.05;;;41.97;;
21505;SDS011;10914;48.886;9.394;2024-01-30T06:35:25;48.63;;;44.58;;
21505;SDS011;10914;48.886;9.394;2024-01-30T06:37:50;51.80;;;47.55;;
21505;SDS011;10914;48.886;9.394;2024-01-30T06:40:16;49.47;;;45.38;;
21505;SDS011;10914;48.886;9.394;2024-01-30T06:42:41;66.18;;;61.40;;
21505;SDS011;10914;48.886;9.394;2024-01-30T06:45:06;47.80;;;43.63;;
21505;SDS011;10914;48.886;9.394;2024-01-30T06:47:32;58.20;;;53.53;;
21505;SDS011;10914;48.886;9.394;2024-01-30T06:49:59;47.95;;;44.35;;
21505;SDS011;10914;48.886;9.394;2024-01-30T06:52:24;51.42;;;47.20;;
21505;SDS011;10914;48.886;9.394;2024-01-30T06:54:50;45.03;;;41.03;;
21505;SDS011;10914;48.886;9.394;2024-01-30T06:57:15;45.65;;;41.55;;
21505;SDS011;10914;48.886;9.394;2024-01-30T06:59:40;47.75;;;43.85;;
21505;SDS011;10914;48.886;9.394;2024-01-30T07:02:08;52.70;;;48.30;;
21505;SDS011;10914;48.886;9.394;2024-01-30T07:04:33;50.47;;;46.50;;
21505;SDS011;10914;48.886;9.394;2024-01-30T07:06:58;57.75;;;53.05;;
21505;SDS011;10914;48.886;9.394;2024-01-30T07:09:24;49.10;;;45.40;;
21505;SDS011;10914;48.886;9.394;2024-01-30T07:11:49;47.47;;;43.53;;
21505;SDS011;10914;48.886;9.394;2024-01-30T07:14:14;46.88;;;43.00;;
21505;SDS011;10914;48.886;9.394;2024-01-30T07:16:39;46.70;;;42.85;;
21505;SDS011;10914;48.886;9.394;2024-01-30T07:19:04;47.13;;;43.22;;
21505;SDS011;10914;48.886;9.394;2024-01-30T07:21:30;49.22;;;44.60;;
21505;SDS011;10914;48.886;9.394;2024-01-30T07:23:55;53.50;;;49.38;;
21505;SDS011;10914;48.886;9.394;2024-01-30T07:26:20;55.08;;;50.92;;
21505;SDS011;10914;48.886;9.394;2024-01-30T07:28:45;51.75;;;47.83;;
21505;SDS011;10914;48.886;9.394;2024-01-30T07:31:10;46.20;;;42.35;;
21505;SDS011;10914;48.886;9.394;2024-01-30T07:33:35;48.22;;;44.33;;
21505;SDS011;10914;48.886;9.394;2024-01-30T07:36:01;49.42;;;45.63;;
21505;SDS011;10914;48.886;9.394;2024-01-30T07:38:26;51.83;;;47.72;;
21505;SDS011;10914;48.886;9.394;2024-01-30T07:40:51;58.08;;;53.45;;
21505;SDS011;10914;48.886;9.394;2024-01-30T07:43:16;56.17;;;51.75;;
21505;SDS011;10914;48.886;9.394;2024-01-30T07:45:41;54.80;;;50.85;;
21505;SDS011;10914;48.886;9.394;2024-01-30T07:48:06;58.42;;;53.88;;
21505;SDS011;10914;48.886;9.394;2024-01-30T07:50:32;55.08;;;50.70;;
21505;SDS011;10914;48.886;9.394;2024-01-30T07:52:58;51.03;;;46.93;;
21505;SDS011;10914;48.886;9.394;2024-01-30T07:55:24;50.40;;;46.60;;
21505;SDS011;10914;48.886;9.394;2024-01-30T07:57:52;40.25;;;37.13;;
21505;SDS011;10914;48.886;9.394;2024-01-30T08:00:18;41.05;;;37.88;;
21505;SDS011;10914;48.886;9.394;2024-01-30T08:02:44;41.60;;;38.15;;
21505;SDS011;10914;48.886;9.394;2024-01-30T08:05:09;41.38;;;38.13;;
21505;SDS011;10914;48.886;9.394;2024-01-30T08:07:36;40.25;;;37.05;;
21505;SDS011;10914;48.886;9.394;2024-01-30T08:10:01;38.38;;;35.25;;
21505;SDS011;10914;48.886;9.394;2024-01-30T08:12:26;42.58;;;39.15;;
21505;SDS011;10914;48.886;9.394;2024-01-30T08:14:51;38.60;;;35.28;;
21505;SDS011;10914;48.886;9.394;2024-01-30T08:17:16;38.87;;;35.60;;
21505;SDS011;10914;48.886;9.394;2024-01-30T08:19:42;38.35;;;35.08;;
21505;SDS011;10914;48.886;9.394;2024-01-30T08:22:07;41.23;;;37.63;;
21505;SDS011;10914;48.886;9.394;2024-01-30T08:24:32;40.60;;;37.40;;
21505;SDS011;10914;48.886;9.394;2024-01-30T08:26:57;40.38;;;37.28;;
21505;SDS011;10914;48.886;9.394;2024-01-30T08:29:23;41.53;;;38.33;;
21505;SDS011;10914;48.886;9.394;2024-01-30T08:31:48;40.60;;;37.60;;
21505;SDS011;10914;48.886;9.394;2024-01-30T08:34:13;41.03;;;37.77;;
21505;SDS011;10914;48.886;9.394;2024-01-30T08:36:38;43.30;;;39.67;;
21505;SDS011;10914;48.886;9.394;2024-01-30T08:39:03;43.38;;;39.88;;
21505;SDS011;10914;48.886;9.394;2024-01-30T08:41:30;43.83;;;40.42;;
21505;SDS011;10914;48.886;9.394;2024-01-30T08:43:55;67.88;;;63.47;;
21505;SDS011;10914;48.886;9.394;2024-01-30T08:46:20;42.97;;;39.77;;
21505;SDS011;10914;48.886;9.394;2024-01-30T08:48:46;43.78;;;40.45;;
21505;SDS011;10914;48.886;9.394;2024-01-30T08:51:11;39.47;;;36.35;;
21505;SDS011;10914;48.886;9.394;2024-01-30T08:53:37;44.83;;;41.22;;
21505;SDS011;10914;48.886;9.394;2024-01-30T08:56:05;51.22;;;47.25;;
21505;SDS011;10914;48.886;9.394;2024-01-30T08:58:31;47.85;;;44.15;;
21505;SDS011;10914;48.886;9.394;2024-01-30T09:00:56;45.20;;;41.53;;
21505;SDS011;10914;48.886;9.394;2024-01-30T09:03:21;43.05;;;39.67;;
21505;SDS011;10914;48.886;9.394;2024-01-30T09:05:46;42.53;;;39.23;;
21505;SDS011;10914;48.886;9.394;2024-01-30T09:08:11;40.50;;;37.20;;
21505;SDS011;10914;48.886;9.394;2024-01-30T09:10:36;39.90;;;36.70;;
21505;SDS011;10914;48.886;9.394;2024-01-30T09:13:02;39.08;;;36.08;;
21505;SDS011;10914;48.886;9.394;2024-01-30T09:15:27;36.85;;;33.85;;
21505;SDS011;10914;48.886;9.394;2024-01-30T09:17:52;35.78;;;33.15;;
21505;SDS011;10914;48.886;9.394;2024-01-30T09:20:17;35.75;;;33.05;;
21505;SDS011;10914;48.886;9.394;2024-01-30T09:22:44;34.22;;;31.80;;
21505;SDS011;10914;48.886;9.394;2024-01-30T09:25:10;36.97;;;34.22;;
21505;SDS011;10914;48.886;9.394;2024-01-30T09:27:35;36.88;;;34.03;;
21505;SDS011;10914;48.886;9.394;2024-01-30T09:30:00;35.47;;;32.80;;
21505;SDS011;10914;48.886;9.394;2024-01-30T09:32:25;35.17;;;32.47;;
21505;SDS011;10914;48.886;9.394;2024-01-30T09:34:51;35.95;;;33.03;;
21505;SDS011;10914;48.886;9.394;2024-01-30T09:37:16;35.27;;;32.57;;
21505;SDS011;10914;48.886;9.394;2024-01-30T09:39:43;34.97;;;32.38;;
21505;SDS011;10914;48.886;9.394;2024-01-30T09:42:53;35.10;;;32.30;;
21505;SDS011;10914;48.886;9.394;2024-01-30T09:44:53;35.30;;;32.67;;
21505;SDS011;10914;48.886;9.394;2024-01-30T09:47:19;36.72;;;33.92;;
21505;SDS011;10914;48.886;9.394;2024-01-30T09:49:44;35.83;;;32.75;;
21505;SDS011;10914;48.886;9.394;2024-01-30T09:52:10;35.55;;;32.85;;
21505;SDS011;10914;48.886;9.394;2024-01-30T09:54:36;36.63;;;33.72;;
21505;SDS011;10914;48.886;9.394;2024-01-30T09:57:01;36.08;;;33.28;;
21505;SDS011;10914;48.886;9.394;2024-01-30T09:59:26;40.20;;;37.33;;
21505;SDS011;10914;48.886;9.394;2024-01-30T10:01:51;42.08;;;39.08;;
21505;SDS011;10914;48.886;9.394;2024-01-30T10:04:17;44.97;;;41.47;;
21505;SDS011;10914;48.886;9.394;2024-01-30T10:06:42;43.70;;;40.38;;
21505;SDS011;10914;48.886;9.394;2024-01-30T10:09:07;42.15;;;39.08;;
21505;SDS011;10914;48.886;9.394;2024-01-30T10:11:33;41.03;;;37.83;;
21505;SDS011;10914;48.886;9.394;2024-01-30T10:13:59;37.90;;;34.95;;
21505;SDS011;10914;48.886;9.394;2024-01-30T10:16:24;37.20;;;34.40;;
21505;SDS011;10914;48.886;9.394;2024-01-30T10:18:50;35.55;;;32.88;;
21505;SDS011;10914;48.886;9.394;2024-01-30T10:21:15;35.70;;;33.00;;
21505;SDS011;10914;48.886;9.394;2024-01-30T10:23:41;36.55;;;33.35;;
21505;SDS011;10914;48.886;9.394;2024-01-30T10:26:08;35.30;;;32.65;;
21505;SDS011;10914;48.886;9.394;2024-01-30T10:28:33;33.03;;;30.52;;
21505;SDS011;10914;48.886;9.394;2024-01-30T10:31:01;33.88;;;31.15;;
21505;SDS011;10914;48.886;9.394;2024-01-30T10:33:28;32.20;;;29.75;;
21505;SDS011;10914;48.886;9.394;2024-01-30T10:35:55;32.97;;;30.38;;
21505;SDS011;10914;48.886;9.394;2024-01-30T10:38:22;31.95;;;29.30;;
21505;SDS011;10914;48.886;9.394;2024-01-30T10:40:49;32.03;;;29.50;;
21505;SDS011;10914;48.886;9.394;2024-01-30T10:43:17;36.17;;;33.53;;
21505;SDS011;10914;48.886;9.394;2024-01-30T10:45:43;39.03;;;36.45;;
21505;SDS011;10914;48.886;9.394;2024-01-30T10:48:12;36.92;;;34.20;;
21505;SDS011;10914;48.886;9.394;2024-01-30T10:50:38;34.08;;;31.67;;
21505;SDS011;10914;48.886;9.394;2024-01-30T10:53:05;31.55;;;29.33;;
21505;SDS011;10914;48.886;9.394;2024-01-30T10:55:30;30.98;;;28.85;;
21505;SDS011;10914;48.886;9.394;2024-01-30T10:57:56;31.38;;;29.17;;
21505;SDS011;10914;48.886;9.394;2024-01-30T11:00:21;31.02;;;28.83;;
21505;SDS011;10914;48.886;9.394;2024-01-30T11:02:49;31.50;;;29.30;;
21505;SDS011;10914;48.886;9.394;2024-01-30T11:05:14;30.02;;;27.90;;
21505;SDS011;10914;48.886;9.394;2024-01-30T11:07:40;29.95;;;27.92;;
21505;SDS011;10914;48.886;9.394;2024-01-30T11:10:09;31.27;;;28.73;;
21505;SDS011;10914;48.886;9.394;2024-01-30T11:12:38;29.58;;;27.30;;
21505;SDS011;10914;48.886;9.394;2024-01-30T11:20:15;32.75;;;30.25;;
21505;SDS011;10914;48.886;9.394;2024-01-30T11:22:41;34.67;;;31.98;;
21505;SDS011;10914;48.886;9.394;2024-01-30T11:25:06;32.65;;;30.17;;
21505;SDS011;10914;48.886;9.394;2024-01-30T11:27:35;32.90;;;30.50;;
21505;SDS011;10914;48.886;9.394;2024-01-30T11:30:01;33.83;;;31.02;;
21505;SDS011;10914;48.886;9.394;2024-01-30T11:32:27;33.67;;;30.88;;
21505;SDS011;10914;48.886;9.394;2024-01-30T11:34:52;32.55;;;30.10;;
21505;SDS011;10914;48.886;9.394;2024-01-30T11:37:18;34.60;;;31.75;;
21505;SDS011;10914;48.886;9.394;2024-01-30T11:39:45;33.35;;;30.83;;
21505;SDS011;10914;48.886;9.394;2024-01-30T11:42:11;33.67;;;31.02;;
21505;SDS011;10914;48.886;9.394;2024-01-30T11:44:36;33.10;;;30.60;;
21505;SDS011;10914;48.886;9.394;2024-01-30T11:47:01;32.17;;;29.73;;
21505;SDS011;10914;48.886;9.394;2024-01-30T11:49:28;33.15;;;30.73;;
21505;SDS011;10914;48.886;9.394;2024-01-30T11:51:53;32.35;;;29.80;;
21505;SDS011;10914;48.886;9.394;2024-01-30T11:54:19;31.27;;;29.08;;
21505;SDS011;10914;48.886;9.394;2024-01-30T11:56:44;33.22;;;30.45;;
21505;SDS011;10914;48.886;9.394;2024-01-30T11:59:09;33.27;;;30.60;;
21505;SDS011;10914;48.886;9.394;2024-01-30T12:01:34;33.13;;;30.40;;
21505;SDS011;10914;48.886;9.394;2024-01-30T12:04:00;32.03;;;29.77;;
21505;SDS011;10914;48.886;9.394;2024-01-30T12:06:25;31.60;;;28.90;;
21505;SDS011;10914;48.886;9.394;2024-01-30T12:08:57;32.33;;;30.00;;
21505;SDS011;10914;48.886;9.394;2024-01-30T12:11:23;35.97;;;32.95;;
21505;SDS011;10914;48.886;9.394;2024-01-30T12:13:49;33.03;;;30.50;;
21505;SDS011;10914;48.886;9.394;2024-01-30T12:16:14;32.70;;;30.05;;
21505;SDS011;10914;48.886;9.394;2024-01-30T12:18:39;31.10;;;28.75;;
21505;SDS011;10914;48.886;9.394;2024-01-30T12:21:05;29.58;;;27.60;;
21505;SDS011;10914;48.886;9.394;2024-01-30T12:23:30;27.60;;;25.70;;
21505;SDS011;10914;48.886;9.394;2024-01-30T12:25:55;29.63;;;27.00;;
21505;SDS011;10914;48.886;9.394;2024-01-30T12:28:21;28.67;;;26.75;;
21505;SDS011;10914;48.886;9.394;2024-01-30T12:30:46;29.33;;;27.33;;
21505;SDS011;10914;48.886;9.394;2024-01-30T12:33:17;29.73;;;27.70;;
21505;SDS011;10914;48.886;9.394;2024-01-30T12:35:46;29.45;;;27.40;;
21505;SDS011;10914;48.886;9.394;2024-01-30T12:38:12;29.92;;;27.63;;
21505;SDS011;10914;48.886;9.394;2024-01-30T12:40:38;29.20;;;27.20;;
21505;SDS011;10914;48.886;9.394;2024-01-30T12:43:03;29.70;;;27.67;;
21505;SDS011;10914;48.886;9.394;2024-01-30T12:45:28;28.95;;;26.75;;
21505;SDS011;10914;48.886;9.394;2024-01-30T12:47:53;29.02;;;26.83;;
21505;SDS011;10914;48.886;9.394;2024-01-30T12:50:19;29.55;;;27.35;;
21505;SDS011;10914;48.886;9.394;2024-01-30T12:52:44;28.30;;;26.30;;
21505;SDS011;10914;48.886;9.394;2024-01-30T12:55:09;27.85;;;25.95;;
21505;SDS011;10914;48.886;9.394;2024-01-30T12:57:35;29.63;;;27.33;;
21505;SDS011;10914;48.886;9.394;2024-01-30T13:00:00;28.47;;;26.53;;
21505;SDS011;10914;48.886;9.394;2024-01-30T13:02:25;29.27;;;27.08;;
21505;SDS011;10914;48.886;9.394;2024-01-30T13:04:51;29.58;;;27.48;;
21505;SDS011;10914;48.886;9.394;2024-01-30T13:07:17;30.48;;;28.38;;
21505;SDS011;10914;48.886;9.394;2024-01-30T13:09:42;29.90;;;27.70;;
21505;SDS011;10914;48.886;9.394;2024-01-30T13:12:07;29.63;;;27.65;;
21505;SDS011;10914;48.886;9.394;2024-01-30T13:14:32;29.38;;;27.08;;
21505;SDS011;10914;48.886;9.394;2024-01-30T13:16:58;28.33;;;26.33;;
21505;SDS011;10914;48.886;9.394;2024-01-30T13:19:23;29.30;;;27.20;;
21505;SDS011;10914;48.886;9.394;2024-01-30T13:21:48;29.50;;;27.03;;
21505;SDS011;10914;48.886;9.394;2024-01-30T13:24:13;29.88;;;27.50;;
21505;SDS011;10914;48.886;9.394;2024-01-30T13:26:39;29.55;;;27.65;;
21505;SDS011;10914;48.886;9.394;2024-01-30T13:29:04;29.20;;;27.20;;
21505;SDS011;10914;48.886;9.394;2024-01-30T13:31:29;28.57;;;26.53;;
21505;SDS011;10914;48.886;9.394;2024-01-30T13:33:55;28.88;;;26.73;;
21505;SDS011;10914;48.886;9.394;2024-01-30T13:36:20;29.48;;;27.42;;
21505;SDS011;10914;48.886;9.394;2024-01-30T13:38:46;29.52;;;27.38;;
21505;SDS011;10914;48.886;9.394;2024-01-30T13:41:11;29.73;;;27.48;;
21505;SDS011;10914;48.886;9.394;2024-01-30T13:43:36;29.38;;;27.25;;
21505;SDS011;10914;48.886;9.394;2024-01-30T13:46:02;30.58;;;28.30;;
21505;SDS011;10914;48.886;9.394;2024-01-30T13:48:28;30.08;;;27.83;;
21505;SDS011;10914;48.886;9.394;2024-01-30T13:50:54;29.98;;;27.90;;
21505;SDS011;10914;48.886;9.394;2024-01-30T13:53:19;29.60;;;27.55;;
21505;SDS011;10914;48.886;9.394;2024-01-30T13:55:45;30.57;;;28.23;;
21505;SDS011;10914;48.886;9.394;2024-01-30T13:58:10;29.00;;;27.00;;
21505;SDS011;10914;48.886;9.394;2024-01-30T14:00:35;30.60;;;28.50;;
21505;SDS011;10914;48.886;9.394;2024-01-30T14:03:00;29.77;;;27.87;;
21505;SDS011;10914;48.886;9.394;2024-01-30T14:05:26;31.63;;;29.15;;
21505;SDS011;10914;48.886;9.394;2024-01-30T14:07:54;29.60;;;27.50;;
21505;SDS011;10914;48.886;9.394;2024-01-30T14:10:20;30.83;;;28.38;;
21505;SDS011;10914;48.886;9.394;2024-01-30T14:12:45;30.23;;;28.20;;
21505;SDS011;10914;48.886;9.394;2024-01-30T14:15:10;29.73;;;27.63;;